Ana Sayfa
METAR-TAF:

METAR-TAF

Havaalanları :

Orange Municipal Airport

Orange, Massachusetts, Amerika Birleşik Devletleri

Enlem: 42-34-18N, Boylam: 072-16-39W, yükseklik: 169 m

Güncel hava durumu gözlemi

Rapor saat 23:52 UTC de 57 dakika önce yapıldı.
Rüzgar güney/güneybatıdan 6 kt
Sıcaklık 3°C
Nem 65%
Basınç 1005 hPa
Görüş mesafesi: 16.1 km
4300 ft yükseklikte çok bulutlu

METAR: KORE 262352Z AUTO 20006KT 10SM OVC043 03/M03 A2969 RMK AO2 SLP058 60000 T00281028 10061 20028 51005

Saat: 19:49 (00:49 UTC)


TAF: eksik

4.000'den fazla havaalanı için hava durumu gözlemleri ve tahminleri (METAR ve TAF raporları).

Kullanılabilir istasyonlar harita üzerinde sarı ve kırmızı noktalarla gösterilir.

İstasyonun adını görmek için fareyi noktanın üzerinde gezdirin.

Sonrasında hava gözlem ve tahminlerini görmek için tıklayın.

Haritayı değiştirmek için: yaklaştırmak için siyah artı işaretli yeşil düğmeye ve uzaklaştırmak için de eksi işaretli düğmeye hızla tıklayın; bitişik haritalar için yeşil okları kullanın.


METAR-TAF: